1998 Severe Tropical Cyclone BILLY (1998336S13120)


IBTrACS version v04r00. Visit IBTrACS website for data access.
Please direct all questions to the IBTrACS Q and A forum

Storm track - Intensity - Wind Radii - Intensity Data - Source Data - All data

Summary Information

Satellite image near maximum intensity
Storm ID 1998336S13120
Start Dec 1 12Z
Landfall Dec 6 07Z
Max Intensity 70 kt (Dec 4 01Z), 965 mb (Dec 4 01Z)
End Dec 7 06Z
ATCF IDs SH051999
Track status Best track data.

Storm track plot

Map of storm track

Intensity plots

Map of storm track

Radial wind information

Map of storm track

Position and Intensity Table

BASIN ISO_TIME_________ NATURE LAT LON WMO WIND WMO PRES USA WIND BOM WIND BOM PRES NEUMANN WIND
degrees north degrees east kts mb kts kts mb kts
SI 1998-12-01 12:00:00 TS -13.20 120.10 20 20
SI 15:00:00 TS -13.51 120.10 22 22
SI 18:00:00 TS -13.90 120.10 25 25
SI 21:00:00 TS -14.40 120.11 25 25
SI 22:00:00 TS -14.58 120.11 25 1002 25 25 1002 25
SI 1998-12-02 00:00:00 TS -14.95 120.10 25 26 1001 25
SI 03:00:00 TS -15.42 120.06 25 29 1000 25
SI 04:00:00 TS -15.57 120.04 30 1000 25 30 1000 25
SI 06:00:00 TS -15.75 119.96 25 33 996 25
SI 07:00:00 TS -15.83 119.91 35 995 25 35 995 25
SI 09:00:00 TS -15.99 119.81 25 35 995 25
SI 10:00:00 TS -16.06 119.75 35 995 25 35 995 25
SI 12:00:00 TS -16.19 119.64 25 38 991 25
SI 13:00:00 TS -16.26 119.59 40 990 25 40 990 25
SI 15:00:00 TS -16.39 119.46 27 40 990 27
SI 16:00:00 TS -16.46 119.39 40 990 28 40 990 28
SI 18:00:00 TS -16.59 119.22 30 46 986 30
SI 19:00:00 TS -16.65 119.15 50 985 30 50 985 30
SI 21:00:00 TS -16.77 119.00 32 50 985 32
SI 22:00:00 TS -16.82 118.92 50 985 33 50 985 33
SI 1998-12-03 00:00:00 TS -16.90 118.74 35 50 985 35
SI 01:00:00 TS -16.94 118.63 50 985 35 50 985 35
SI 03:00:00 TS -17.03 118.41 37 50 985 37
SI 04:00:00 TS -17.08 118.29 50 985 38 50 985 38
SI 06:00:00 TS -17.16 118.10 40 50 985 40
SI 07:00:00 TS -17.19 118.01 50 985 40 50 985 40
SI 09:00:00 TS -17.26 117.86 42 50 985 42
SI 10:00:00 TS -17.29 117.78 50 985 43 50 985 43
SI 12:00:00 TS -17.35 117.63 45 53 981 45
SI 13:00:00 TS -17.40 117.56 55 980 46 55 980 46
SI 15:00:00 TS -17.53 117.42 50 55 980 50
SI 16:00:00 TS -17.60 117.36 55 980 51 55 980 51
SI 18:00:00 TS -17.71 117.24 55 58 976 55
SI 19:00:00 TS -17.76 117.19 60 975 56 60 975 56
SI 21:00:00 TS -17.85 117.07 60 63 971 60
SI 22:00:00 TS -17.89 117.02 65 970 61 65 970 61
SI 1998-12-04 00:00:00 TS -17.98 116.91 65 68 966 65
SI 01:00:00 TS -18.02 116.86 70 965 65 70 965 65
SI 03:00:00 TS -18.13 116.75 65 70 965 65
SI 04:00:00 TS -18.18 116.70 70 965 65 70 965 65
SI 06:00:00 TS -18.28 116.61 65 66 968 65
SI 07:00:00 TS -18.33 116.56 65 970 65 65 970 65
SI 09:00:00 TS -18.41 116.45 65 65 970 65
SI 10:00:00 TS -18.46 116.39 65 970 65 65 970 65
SI 12:00:00 TS -18.58 116.26 65 65 970 65
SI 13:00:00 TS -18.64 116.19 65 970 64 65 970 64
SI 15:00:00 TS -18.75 116.05 62 61 973 62
SI 16:00:00 TS -18.81 115.98 60 975 61 60 975 61
SI 18:00:00 TS -18.92 115.85 60 60 975 60
SI 19:00:00 TS -18.98 115.79 60 975 60 60 975 60
SI 21:00:00 TS -19.09 115.70 60 56 978 60
SI 22:00:00 TS -19.15 115.66 55 980 60 55 980 60
SI 1998-12-05 00:00:00 TS -19.26 115.58 60 55 980 60
SI 01:00:00 TS -19.30 115.54 55 980 58 55 980 58
SI 03:00:00 TS -19.38 115.47 55 51 983 55
SI 04:00:00 TS -19.43 115.44 50 985 53 50 985 53
SI 06:00:00 TS -19.54 115.38 50 50 985 50
SI 07:00:00 TS -19.62 115.34 50 985 49 50 985 49
SI 09:00:00 TS -19.79 115.28 47 43 988 47
SI 10:00:00 TS -19.89 115.24 40 990 46 40 990 46
SI 12:00:00 TS -20.07 115.18 45 40 990 45
SI 13:00:00 TS -20.15 115.14 40 990 45 40 990 45
SI 15:00:00 TS -20.28 115.07 45 36 993 45
SI 16:00:00 TS -20.34 115.03 35 995 45 35 995 45
SI 18:00:00 TS -20.48 114.98 45 35 995 45
SI 19:00:00 TS -20.55 114.96 35 995 44 35 995 44
SI 21:00:00 TS -20.70 114.93 42 31 996 42
SI 22:00:00 TS -20.78 114.92 30 998 41 30 998 41
SI 1998-12-06 00:00:00 TS -20.96 114.93 40 30 998 40
SI 01:00:00 TS -21.06 114.93 30 998 39 30 998 39
SI 03:00:00 TS -21.25 114.98 37 26 999 37
SI 04:00:00 TS -21.35 115.00 25 1000 36 25 1000 36
SI 06:00:00 TS -21.58 115.07 35 25 1000 35
SI 07:00:00 TS -21.72 115.10 25 1000 33 25 1000 33
SI 09:00:00 TS -22.04 115.23 30 30
SI 12:00:00 TS -22.50 115.50 25 25
SI 15:00:00 TS -22.86 115.64 25 25
SI 18:00:00 TS -23.20 115.80 25 25
SI 21:00:00 TS -23.55 116.08 22 22
SI 1998-12-07 00:00:00 TS -23.90 116.50 20 20
SI 03:00:00 TS -24.25 117.06 20 20
SI 06:00:00 TS -24.60 117.70 20 20

Source Information

Agency Information
USA bsh051999.txt
TOKYO
CMA
HKO
NEWDELHI
REUNION
BOM IDCKMSTM0S.csv:Line=19981:BILLY
NADI
WELLINGTON
DS824
TD9636
TD9635
NEUMANN tracks.sh:Storm=1144:BILLY:BSH051999:JTWC
MLC

All available IBTrACS Data

SEASON BASIN SUBBASIN ISO_TIME_________ NATURE LAT LON WMO WIND WMO PRES WMO AGENCY DIST2LAND LANDFALL IFLAG USA AGENCY USA ATCF_ID USA LAT USA LON USA WIND USA SSHS BOM LAT BOM LON BOM TYPE BOM WIND BOM PRES BOM CI BOM ROCI NEUMANN LAT NEUMANN LON NEUMANN CLASS NEUMANN WIND STORM SPEED STORM DIR
Year degrees north degrees east kts mb km km degrees north degrees east kts 1 degrees north degrees east kts mb 1 nmile degrees north degrees east kts kts degrees
1999 SI WA 1998-12-01 12:00:00 TS -13.20 120.10 327 327 O___________O_ jtwc_sh SH051999 -13.20 120.10 20 -1 -13.20 120.10 TC 20 6 0
1999 SI WA 15:00:00 TS -13.51 120.10 360 360 P___________P_ SH051999 -13.51 120.10 22 -1 -13.51 120.10 TC 22 7 0
1999 SI WA 18:00:00 TS -13.90 120.10 405 379 O___________O_ jtwc_sh SH051999 -13.90 120.10 25 -1 -13.90 120.10 TC 25 9 0
1999 SI WA 21:00:00 TS -14.40 120.11 379 363 P___________P_ SH051999 -14.40 120.11 25 -1 -14.40 120.11 TC 25 10 178
1999 SI WA 22:00:00 TS -14.58 120.11 25 1002 bom 363 340 P_____O_____P_ SH051999 -14.57 120.11 25 -1 -14.60 120.10 20 25 1002 2.00 -14.57 120.11 TC 25 11 181
1999 SI WA 1998-12-02 00:00:00 TS -14.95 120.10 340 302 O_____P_____O_ jtwc_sh SH051999 -14.90 120.10 25 -1 -15.13 120.10 20 26 1001 -14.90 120.10 TC 25 10 183
1999 SI WA 03:00:00 TS -15.42 120.06 302 295 P_____P_____P_ SH051999 -15.29 120.07 25 -1 -15.76 120.04 20 29 1000 -15.29 120.07 TC 25 9 185
1999 SI WA 04:00:00 TS -15.57 120.04 30 1000 bom 297 291 P_____O_____P_ SH051999 -15.40 120.05 25 -1 -15.90 120.00 20 30 1000 2.50 160 -15.40 120.05 TC 25 7 198
1999 SI WA 06:00:00 TS -15.75 119.96 291 285 O_____P_____O_ jtwc_sh SH051999 -15.60 120.00 25 -1 -16.05 119.87 20 33 996 160 -15.60 120.00 TC 25 6 205
1999 SI WA 07:00:00 TS -15.83 119.91 35 995 bom 294 289 P_____O_____P_ SH051999 -15.69 119.97 25 -1 -16.10 119.80 30 35 995 3.00 160 -15.69 119.97 TC 25 6 212
1999 SI WA 09:00:00 TS -15.99 119.81 293 288 P_____P_____P_ SH051999 -15.86 119.88 25 -1 -16.24 119.66 30 35 995 142 -15.86 119.88 TC 25 6 214
1999 SI WA 10:00:00 TS -16.06 119.75 35 995 bom 288 293 P_____O_____P_ SH051999 -15.94 119.83 25 -1 -16.30 119.60 30 35 995 3.00 133 -15.94 119.83 TC 25 5 219
1999 SI WA 12:00:00 TS -16.19 119.64 303 298 O_____P_____O_ jtwc_sh SH051999 -16.10 119.70 25 -1 -16.37 119.53 30 38 991 133 -16.10 119.70 TC 25 5 219
1999 SI WA 13:00:00 TS -16.26 119.59 40 990 bom 298 298 P_____O_____P_ SH051999 -16.19 119.63 25 -1 -16.40 119.50 30 40 990 3.00 133 -16.19 119.63 TC 25 5 221
1999 SI WA 15:00:00 TS -16.39 119.46 304 304 P_____P_____P_ SH051999 -16.36 119.47 27 -1 -16.47 119.44 30 40 990 133 -16.36 119.47 TC 27 6 223
1999 SI WA 16:00:00 TS -16.46 119.39 40 990 bom 311 311 P_____O_____P_ SH051999 -16.44 119.38 28 -1 -16.50 119.40 30 40 990 3.00 133 -16.44 119.38 TC 28 6 229
1999 SI WA 18:00:00 TS -16.59 119.22 327 327 O_____P_____O_ jtwc_sh SH051999 -16.60 119.20 30 -1 -16.57 119.27 30 46 986 150 -16.60 119.20 TC 30 6 230
1999 SI WA 19:00:00 TS -16.65 119.15 50 985 bom 337 334 P_____O_____P_ SH051999 -16.67 119.12 30 -1 -16.60 119.20 30 50 985 3.50 160 -16.67 119.12 TC 30 6 231
1999 SI WA 21:00:00 TS -16.77 119.00 341 341 P_____P_____P_ SH051999 -16.81 118.96 32 -1 -16.67 119.07 30 50 985 142 -16.81 118.96 TC 32 6 232
1999 SI WA 22:00:00 TS -16.82 118.92 50 985 bom 351 351 P_____O_____P_ SH051999 -16.88 118.87 33 -1 -16.70 119.00 30 50 985 3.50 133 -16.88 118.87 TC 33 6 242
1999 SI WA 1998-12-03 00:00:00 TS -16.90 118.74 360 360 O_____P_____O_ jtwc_sh SH051999 -17.00 118.70 35 0 -16.70 118.81 30 50 985 133 -17.00 118.70 TC 35 6 246
1999 SI WA 01:00:00 TS -16.94 118.63 50 985 bom 361 350 P_____O_____P_ SH051999 -17.06 118.60 35 0 -16.70 118.70 30 50 985 3.50 133 -17.06 118.60 TC 35 7 248
1999 SI WA 03:00:00 TS -17.03 118.41 354 346 P_____P_____P_ SH051999 -17.17 118.39 37 0 -16.76 118.43 30 50 985 133 -17.17 118.39 TC 37 7 247
1999 SI WA 04:00:00 TS -17.08 118.29 50 985 bom 346 346 P_____O_____P_ SH051999 -17.21 118.29 38 0 -16.80 118.30 30 50 985 3.50 133 -17.21 118.29 TC 38 6 247
1999 SI WA 06:00:00 TS -17.16 118.10 341 341 O_____P_____O_ jtwc_sh SH051999 -17.30 118.10 40 0 -16.87 118.09 30 50 985 150 -17.30 118.10 TC 40 6 246
1999 SI WA 07:00:00 TS -17.19 118.01 50 985 bom 344 337 P_____O_____P_ SH051999 -17.34 118.02 40 0 -16.90 118.00 30 50 985 3.50 160 -17.34 118.02 TC 40 5 246
1999 SI WA 09:00:00 TS -17.26 117.86 337 337 P_____P_____P_ SH051999 -17.40 117.88 42 0 -16.97 117.80 30 50 985 142 -17.40 117.88 TC 42 5 247
1999 SI WA 10:00:00 TS -17.29 117.78 50 985 bom 341 341 P_____O_____P_ SH051999 -17.43 117.82 43 0 -17.00 117.70 30 50 985 3.50 133 -17.43 117.82 TC 43 5 246
1999 SI WA 12:00:00 TS -17.35 117.63 339 339 O_____P_____O_ jtwc_sh SH051999 -17.50 117.70 45 0 -17.05 117.49 30 53 981 133 -17.50 117.70 TC 45 5 243
1999 SI WA 13:00:00 TS -17.40 117.56 55 980 bom 339 330 P_____O_____P_ SH051999 -17.55 117.63 46 0 -17.10 117.40 30 55 980 4.00 133 -17.55 117.63 TC 46 5 228
1999 SI WA 15:00:00 TS -17.53 117.42 332 321 P_____P_____P_ SH051999 -17.65 117.50 50 0 -17.30 117.25 30 55 980 133 -17.65 117.50 TC 50 6 223
1999 SI WA 16:00:00 TS -17.60 117.36 55 980 bom 321 313 P_____O_____P_ SH051999 -17.70 117.43 51 0 -17.40 117.20 30 55 980 4.00 133 -17.70 117.43 TC 51 5 223
1999 SI WA 18:00:00 TS -17.71 117.24 316 305 O_____P_____O_ jtwc_sh SH051999 -17.80 117.30 55 0 -17.54 117.13 30 58 976 133 -17.80 117.30 TC 55 5 225
1999 SI WA 19:00:00 TS -17.76 117.19 60 975 bom 305 305 P_____O_____P_ SH051999 -17.84 117.23 56 0 -17.60 117.10 30 60 975 4.00 133 -17.84 117.23 TC 56 4 230
1999 SI WA 21:00:00 TS -17.85 117.07 309 298 P_____P_____P_ SH051999 -17.91 117.09 60 0 -17.73 117.03 30 63 971 150 -17.91 117.09 TC 60 4 231
1999 SI WA 22:00:00 TS -17.89 117.02 65 970 bom 302 291 P_____O_____P_ SH051999 -17.94 117.03 61 0 -17.80 117.00 40 65 970 4.50 160 -17.94 117.03 TC 61 4 231
1999 SI WA 1998-12-04 00:00:00 TS -17.98 116.91 291 291 O_____P_____O_ jtwc_sh SH051999 -18.00 116.90 65 1 -17.93 116.94 40 68 966 160 -18.00 116.90 TC 65 4 228
1999 SI WA 01:00:00 TS -18.02 116.86 70 965 bom 291 279 P_____O_____P_ SH051999 -18.03 116.85 65 1 -18.00 116.90 40 70 965 4.50 160 -18.03 116.85 TC 65 4 225
1999 SI WA 03:00:00 TS -18.13 116.75 279 268 P_____P_____P_ SH051999 -18.09 116.75 65 1 -18.20 116.76 40 70 965 142 -18.09 116.75 TC 65 5 223
1999 SI WA 04:00:00 TS -18.18 116.70 70 965 bom 268 257 P_____O_____P_ SH051999 -18.13 116.70 65 1 -18.30 116.70 40 70 965 4.50 133 -18.13 116.70 TC 65 4 222
1999 SI WA 06:00:00 TS -18.28 116.61 257 257 O_____P_____O_ jtwc_sh SH051999 -18.20 116.60 65 1 -18.45 116.63 40 66 968 133 -18.20 116.60 TC 65 4 223
1999 SI WA 07:00:00 TS -18.33 116.56 65 970 bom 257 246 P_____O_____P_ SH051999 -18.24 116.54 65 1 -18.50 116.60 40 65 970 4.50 133 -18.24 116.54 TC 65 4 229
1999 SI WA 09:00:00 TS -18.41 116.45 246 236 P_____P_____P_ SH051999 -18.34 116.41 65 1 -18.56 116.54 40 65 970 133 -18.34 116.41 TC 65 4 231
1999 SI WA 10:00:00 TS -18.46 116.39 65 970 bom 236 227 P_____O_____P_ SH051999 -18.39 116.34 65 1 -18.60 116.50 40 65 970 4.50 133 -18.39 116.34 TC 65 5 228
1999 SI WA 12:00:00 TS -18.58 116.26 227 227 O_____P_____O_ jtwc_sh SH051999 -18.50 116.20 65 1 -18.74 116.37 40 65 970 150 -18.50 116.20 TC 65 5 226
1999 SI WA 13:00:00 TS -18.64 116.19 65 970 bom 229 218 P_____O_____P_ SH051999 -18.56 116.13 64 1 -18.80 116.30 40 65 970 4.50 160 -18.56 116.13 TC 64 5 229
1999 SI WA 15:00:00 TS -18.75 116.05 210 210 P_____P_____P_ SH051999 -18.69 115.99 62 0 -18.87 116.17 40 61 973 160 -18.69 115.99 TC 62 5 229
1999 SI WA 16:00:00 TS -18.81 115.98 60 975 bom 214 207 P_____O_____P_ SH051999 -18.76 115.93 61 0 -18.90 116.10 30 60 975 4.00 160 -18.76 115.93 TC 61 5 227
1999 SI WA 18:00:00 TS -18.92 115.85 207 202 O_____P_____O_ jtwc_sh SH051999 -18.90 115.80 60 0 -18.97 115.96 30 60 975 160 -18.90 115.80 TC 60 5 226
1999 SI WA 19:00:00 TS -18.98 115.79 60 975 bom 202 197 P_____O_____P_ SH051999 -18.97 115.74 60 0 -19.00 115.90 30 60 975 4.00 160 -18.97 115.74 TC 60 5 220
1999 SI WA 21:00:00 TS -19.09 115.70 197 197 P_____P_____P_ SH051999 -19.11 115.63 60 0 -19.07 115.83 30 56 978 160 -19.11 115.63 TC 60 4 218
1999 SI WA 22:00:00 TS -19.15 115.66 55 980 bom 197 188 P_____O_____P_ SH051999 -19.17 115.59 60 0 -19.10 115.80 30 55 980 4.00 160 -19.17 115.59 TC 60 4 215
1999 SI WA 1998-12-05 00:00:00 TS -19.26 115.58 185 185 O_____P_____O_ jtwc_sh SH051999 -19.30 115.50 60 0 -19.17 115.73 30 55 980 160 -19.30 115.50 TC 60 4 216
1999 SI WA 01:00:00 TS -19.30 115.54 55 980 bom 192 182 P_____O_____P_ SH051999 -19.35 115.46 58 0 -19.20 115.70 30 55 980 4.00 160 -19.35 115.46 TC 58 3 217
1999 SI WA 03:00:00 TS -19.38 115.47 182 182 P_____P_____P_ SH051999 -19.44 115.39 55 0 -19.26 115.63 30 51 983 160 -19.44 115.39 TC 55 3 217
1999 SI WA 04:00:00 TS -19.43 115.44 50 985 bom 187 177 P_____O_____P_ SH051999 -19.49 115.36 53 0 -19.30 115.60 30 50 985 3.50 160 -19.49 115.36 TC 53 4 209
1999 SI WA 06:00:00 TS -19.54 115.38 177 167 O_____P_____O_ jtwc_sh SH051999 -19.60 115.30 50 0 -19.42 115.53 30 50 985 142 -19.60 115.30 TC 50 4 205
1999 SI WA 07:00:00 TS -19.62 115.34 50 985 bom 173 154 P_____O_____P_ SH051999 -19.67 115.27 49 0 -19.50 115.50 30 50 985 3.50 133 -19.67 115.27 TC 49 5 201
1999 SI WA 09:00:00 TS -19.79 115.28 154 145 P_____P_____P_ SH051999 -19.84 115.20 47 0 -19.69 115.43 30 43 988 115 -19.84 115.20 TC 47 6 200
1999 SI WA 10:00:00 TS -19.89 115.24 40 990 bom 152 133 P_____O_____P_ SH051999 -19.93 115.17 46 0 -19.80 115.40 30 40 990 3.00 106 -19.93 115.17 TC 46 6 200
1999 SI WA 12:00:00 TS -20.07 115.18 133 133 O_____P_____O_ jtwc_sh SH051999 -20.10 115.10 45 0 -20.01 115.33 30 40 990 106 -20.10 115.10 TC 45 6 200
1999 SI WA 13:00:00 TS -20.15 115.14 40 990 bom 139 122 P_____O_____P_ SH051999 -20.17 115.06 45 0 -20.10 115.30 30 40 990 3.00 106 -20.17 115.06 TC 45 5 206
1999 SI WA 15:00:00 TS -20.28 115.07 122 122 P_____P_____P_ SH051999 -20.30 114.99 45 0 -20.24 115.23 30 36 993 106 -20.30 114.99 TC 45 4 207
1999 SI WA 16:00:00 TS -20.34 115.03 35 995 bom 129 114 P_____O_____P_ SH051999 -20.36 114.95 45 0 -20.30 115.20 30 35 995 3.00 106 -20.36 114.95 TC 45 4 204
1999 SI WA 18:00:00 TS -20.48 114.98 114 114 O_____P_____O_ jtwc_sh SH051999 -20.50 114.90 45 0 -20.43 115.13 30 35 995 106 -20.50 114.90 TC 45 4 197
1999 SI WA 19:00:00 TS -20.55 114.96 35 995 bom 114 105 P_____O_____P_ SH051999 -20.57 114.89 44 0 -20.50 115.10 30 35 995 3.00 106 -20.57 114.89 TC 44 5 190
1999 SI WA 21:00:00 TS -20.70 114.93 105 94 P_____P_____P_ SH051999 -20.73 114.88 42 0 -20.63 115.03 30 31 996 106 -20.73 114.88 TC 42 5 191
1999 SI WA 22:00:00 TS -20.78 114.92 30 998 bom 94 84 P_____O_____P_ SH051999 -20.82 114.88 41 0 -20.70 115.00 20 30 998 2.50 106 -20.82 114.88 TC 41 5 0
1999 SI WA 1998-12-06 00:00:00 TS -20.96 114.93 73 63 O_____P_____O_ jtwc_sh SH051999 -21.00 114.90 40 0 -20.89 114.98 20 30 998 106 -21.00 114.90 TC 40 6 0
1999 SI WA 01:00:00 TS -21.06 114.93 30 998 bom 63 49 P_____O_____P_ SH051999 -21.09 114.90 39 0 -21.00 115.00 20 30 998 2.50 106 -21.09 114.90 TC 39 6 168
1999 SI WA 03:00:00 TS -21.25 114.98 49 30 P_____P_____P_ SH051999 -21.27 114.91 37 0 -21.20 115.12 20 26 999 106 -21.27 114.91 TC 37 6 167
1999 SI WA 04:00:00 TS -21.35 115.00 25 1000 bom 30 10 P_____O_____P_ SH051999 -21.37 114.93 36 0 -21.30 115.20 20 25 1000 2.00 106 -21.37 114.93 TC 36 7 167
1999 SI WA 06:00:00 TS -21.58 115.07 10 0 O_____P_____O_ jtwc_sh SH051999 -21.60 115.00 35 0 -21.50 115.34 20 25 1000 106 -21.60 115.00 TC 35 8 167
1999 SI WA 07:00:00 TS -21.72 115.10 25 1000 bom 0 0 P_____O_____P_ SH051999 -21.74 115.07 33 -1 -21.60 115.40 20 25 1000 2.00 106 -21.74 115.07 TC 33 10 162
1999 SI WA 09:00:00 TS -22.04 115.23 0 0 P___________P_ SH051999 -22.04 115.23 30 -1 20 -22.04 115.23 TC 30 10 155
1999 SI WA 12:00:00 TS -22.50 115.50 0 0 O___________O_ jtwc_sh SH051999 -22.50 115.50 25 -1 -22.50 115.50 TC 25 9 156
1999 SI WA 15:00:00 TS -22.86 115.64 0 0 P___________P_ SH051999 -22.86 115.64 25 -1 -22.86 115.64 TC 25 8 158
1999 SI WA 18:00:00 TS -23.20 115.80 0 0 O___________O_ jtwc_sh SH051999 -23.20 115.80 25 -1 -23.20 115.80 TC 25 8 149
1999 SI WA 21:00:00 TS -23.55 116.08 0 0 P___________P_ SH051999 -23.55 116.08 22 -1 -23.55 116.08 TC 22 10 137
1999 SI WA 1998-12-07 00:00:00 TS -23.90 116.50 0 0 O___________O_ jtwc_sh SH051999 -23.90 116.50 20 -1 -23.90 116.50 TC 20 11 128
1999 SI WA 03:00:00 TS -24.25 117.06 0 0 P___________P_ SH051999 -24.25 117.06 20 -1 -24.25 117.06 TC 20 13 123
1999 SI WA 06:00:00 TS -24.60 117.70 0 O___________O_ jtwc_sh SH051999 -24.60 117.70 20 -1 -24.60 117.70 TC 20 14 121